< < Back
Terminal Aerodrome Forecast


Current Version              Previous Versions:   1  2  3  4  5  6  7  8  9  

Terminal Aerodrome Forecast

850
FTUS42 KILM 300900 AAB
TAFILM
TAF AMD
KILM 300926Z 3009/0106 02004KT 6SM BR SCT005 SCT080
      TEMPO 3010/3012 3SM BR BKN005
     FM301300 05008KT P6SM SCT040=

Latest METAR

633
SAUS70 KWBC 302200 RRL
MTRILM
METAR KILM 302153Z 01007KT 10SM FEW040 BKN050 27/18 A2983 RMK AO2 SLP101
T02670183


USA.gov is the U.S. government's official web portal to all federal, state and local government web resources and services.